Terminal Aerodrome Forecast
Issued by NWS Twin Cities, MN

Home | Current Version | Previous Version | Text Only | Print | Product List | Glossary On
Versions: 1 2 3 4 5 6 7 8 9 10 11 12 13 14 15
715
FTUS43 KMPX 310520
TAFSTC
TAF
KSTC 310520Z 3106/0106 12004KT P6SM FEW050
     FM311000 VRB03KT 3SM BR SCT020
      TEMPO 3110/3112 1 1/2SM BR BKN020
     FM311400 16008KT P6SM SCT035 BKN120=

USA.gov is the U.S. government's official web portal to all federal, state and local government web resources and services.